Terminal Aerodrome Forecast
Issued by NWS

Home | Current Version | Previous Version | Text Only | Print | Product List | Glossary On
Versions: 1 2 3 4 5 6 7 8 9 10 11 12 13 14 15 16 17 18 19 20 21 22 23 24 25 26 27
000
FTUS44 KEWX 300733 AAA
TAFSSF
TAF AMD
KSSF 300733Z 3008/3106 00000KT P6SM FEW015 SCT250
     FM300900 12004KT P6SM BKN012
     FM301200 14006KT P6SM BKN007 OVC020
     FM301600 15008KT P6SM VCSH SCT015 SCT035 PROB30 3023/3024 P6SM
      TSRA SCT035CB
     FM310400 05006KT P6SM VCSH BKN028=

USA.gov is the U.S. government's official web portal to all federal, state and local government web resources and services.